Time;durP1;ratioP1;P1;durP2;ratioP2;P2;SDS_P1;SDS_P2;PMS_P1;PMS_P2;Temp;Humidity;BMP_temperature;BMP_pressure;BME280_temperature;BME280_humidity;BME280_pressure;Samples;Min_cycle;Max_cycle;Signal;HPM_P1;HPM_P2
2023/09/25 00:00:32;;;;;;;3.85;2.47;;;;;;;12.73;71.20;99728.72;5046304;28;20437;-76
2023/09/25 00:02:59;;;;;;;2.75;2.55;;;;;;;12.75;70.84;99731.19;5048973;28;20052;-76
2023/09/25 00:05:25;;;;;;;6.15;2.38;;;;;;;12.61;70.73;99735.19;5043660;28;20037;-76
2023/09/25 00:07:51;;;;;;;2.50;2.25;;;;;;;12.64;71.18;99734.72;5044806;28;20512;-76
2023/09/25 00:10:17;;;;;;;2.50;2.30;;;;;;;12.61;71.21;99730.66;5046886;28;20036;-77
2023/09/25 00:12:42;;;;;;;2.67;2.45;;;;;;;12.62;70.96;99726.91;5048013;28;20600;-76
2023/09/25 00:15:08;;;;;;;2.70;2.50;;;;;;;12.71;70.83;99733.50;5048734;28;20060;-77
2023/09/25 00:17:34;;;;;;;3.58;2.40;;;;;;;12.61;71.21;99727.97;5043635;28;20029;-76
2023/09/25 00:20:00;;;;;;;2.50;2.10;;;;;;;12.55;71.26;99726.28;5039297;28;20021;-77
2023/09/25 00:22:25;;;;;;;4.22;2.40;;;;;;;12.54;71.51;99723.81;5042268;28;20106;-77
2023/09/25 00:24:50;;;;;;;2.58;2.38;;;;;;;12.57;71.23;99732.19;5046205;28;20178;-77
2023/09/25 00:27:16;;;;;;;2.13;1.92;;;;;;;12.54;71.19;99726.50;5048282;28;20103;-77
2023/09/25 00:29:42;;;;;;;2.53;2.33;;;;;;;12.46;71.07;99735.72;5061520;28;20067;-77
2023/09/25 00:32:07;;;;;;;2.60;2.40;;;;;;;12.50;71.43;99739.56;5046985;28;20055;-77
2023/09/25 00:34:32;;;;;;;2.70;2.35;;;;;;;12.47;71.00;99740.03;5046072;28;20036;-76
2023/09/25 00:36:59;;;;;;;5.82;2.17;;;;;;;12.49;71.15;99748.63;5044161;28;21806;-76
2023/09/25 00:39:24;;;;;;;2.58;2.38;;;;;;;12.50;70.87;99746.78;5047294;28;20082;-77
2023/09/25 00:41:50;;;;;;;2.35;2.20;;;;;;;12.48;71.24;99743.53;5061784;28;20025;-77
2023/09/25 00:44:16;;;;;;;2.90;2.60;;;;;;;12.44;71.22;99751.22;5046157;28;20401;-78
2023/09/25 00:46:42;;;;;;;3.03;2.67;;;;;;;12.41;70.96;99734.81;5047832;28;20061;-79
2023/09/25 00:49:08;;;;;;;5.97;2.80;;;;;;;12.49;71.13;99739.81;5048085;28;20028;-78
2023/09/25 00:51:33;;;;;;;2.47;2.20;;;;;;;12.38;71.31;99749.50;5047160;28;20033;-78
2023/09/25 00:53:59;;;;;;;2.75;2.55;;;;;;;12.32;71.49;99742.41;5044955;28;20047;-78
2023/09/25 00:56:25;;;;;;;2.47;2.28;;;;;;;12.38;71.28;99743.34;5047148;28;20112;-78
2023/09/25 00:58:51;;;;;;;2.20;2.03;;;;;;;12.36;71.28;99735.53;5045964;28;20033;-78
2023/09/25 01:01:17;;;;;;;2.28;2.08;;;;;;;12.37;71.27;99745.19;5045768;28;20060;-78
2023/09/25 01:03:42;;;;;;;4.22;2.25;;;;;;;12.43;71.00;99730.84;5047869;28;20067;-78
2023/09/25 01:06:08;;;;;;;2.50;2.30;;;;;;;12.35;71.55;99736.59;5046801;28;20033;-77
2023/09/25 01:08:33;;;;;;;2.60;2.40;;;;;;;12.38;71.42;99735.31;5043722;28;20036;-77
2023/09/25 01:10:59;;;;;;;2.17;1.98;;;;;;;12.35;71.65;99735.75;5042050;28;20048;-77
2023/09/25 01:13:24;;;;;;;2.90;2.33;;;;;;;12.39;70.96;99739.59;5045911;28;20460;-77
2023/09/25 01:15:50;;;;;;;2.83;2.63;;;;;;;12.28;71.82;99735.91;5046296;28;20574;-77
2023/09/25 01:18:15;;;;;;;2.20;1.92;;;;;;;12.32;71.24;99730.91;5056608;28;20444;-76
2023/09/25 01:20:40;;;;;;;3.50;2.88;;;;;;;12.12;71.46;99731.31;5042309;28;20049;-77
2023/09/25 01:23:07;;;;;;;2.30;2.10;;;;;;;12.16;71.61;99727.13;5044404;28;20431;-76
2023/09/25 01:25:32;;;;;;;2.60;2.15;;;;;;;12.15;71.49;99730.81;5046025;28;20106;-76
2023/09/25 01:27:58;;;;;;;3.13;2.13;;;;;;;12.18;71.63;99730.34;5043646;28;20120;-77
2023/09/25 01:30:23;;;;;;;3.92;2.47;;;;;;;12.13;71.63;99732.09;5045602;28;20028;-77
2023/09/25 01:32:50;;;;;;;4.05;2.40;;;;;;;12.12;71.64;99728.63;5045408;28;20413;-77
2023/09/25 01:35:23;;;;;;;3.88;2.40;;;;;;;12.08;71.53;99724.00;5046309;28;20052;-77
2023/09/25 01:37:48;;;;;;;3.40;2.50;;;;;;;12.22;71.26;99725.34;5045635;28;20162;-77
2023/09/25 01:40:15;;;;;;;2.70;2.50;;;;;;;12.19;70.86;99723.94;5045184;28;20116;-77
2023/09/25 01:42:41;;;;;;;3.10;2.17;;;;;;;12.07;71.38;99723.16;5049697;28;20025;-77
2023/09/25 01:45:11;;;;;;;2.50;2.13;;;;;;;12.03;71.16;99714.78;5048568;28;20386;-76
2023/09/25 01:47:37;;;;;;;2.55;2.35;;;;;;;11.95;72.00;99719.69;5049374;28;20373;-77
2023/09/25 01:50:03;;;;;;;2.78;2.58;;;;;;;12.07;71.29;99719.69;5045491;28;20048;-77
2023/09/25 01:52:29;;;;;;;2.28;2.08;;;;;;;12.09;71.47;99710.38;5046061;28;20029;-77
2023/09/25 01:54:55;;;;;;;4.65;2.60;;;;;;;11.94;71.48;99715.41;5049939;28;20032;-76
2023/09/25 01:57:21;;;;;;;4.43;2.33;;;;;;;12.02;71.20;99715.03;5048283;28;20031;-76
2023/09/25 01:59:47;;;;;;;4.53;2.50;;;;;;;11.95;71.68;99709.81;5043756;28;20033;-76
2023/09/25 02:02:13;;;;;;;6.53;2.58;;;;;;;11.93;71.40;99714.59;5048225;28;20481;-77
2023/09/25 02:04:38;;;;;;;2.50;2.30;;;;;;;11.87;71.31;99706.69;5047415;28;20039;-77
2023/09/25 02:07:03;;;;;;;2.55;2.35;;;;;;;11.86;71.56;99711.22;5050196;28;20489;-77
2023/09/25 02:09:28;;;;;;;2.72;2.35;;;;;;;11.85;71.43;99708.78;5047505;28;20033;-77
2023/09/25 02:11:54;;;;;;;3.47;2.47;;;;;;;11.80;71.78;99704.16;5046665;28;20037;-77
2023/09/25 02:14:20;;;;;;;5.63;2.60;;;;;;;11.72;71.57;99699.16;5047129;28;20040;-78
2023/09/25 02:16:46;;;;;;;3.85;2.70;;;;;;;11.73;71.42;99700.78;5048589;28;20106;-77
2023/09/25 02:19:11;;;;;;;4.78;2.70;;;;;;;11.77;71.62;99701.94;5048866;28;20074;-78
2023/09/25 02:21:37;;;;;;;2.70;2.50;;;;;;;11.81;71.50;99699.63;5048336;28;20035;-78
2023/09/25 02:24:03;;;;;;;2.85;2.25;;;;;;;11.79;71.70;99705.22;5048812;28;20029;-77
2023/09/25 02:26:28;;;;;;;2.70;2.30;;;;;;;11.77;71.71;99701.94;5049271;28;20499;-77
2023/09/25 02:28:53;;;;;;;2.30;2.10;;;;;;;11.77;71.80;99693.91;5046069;28;20041;-77
2023/09/25 02:31:19;;;;;;;2.60;2.40;;;;;;;11.90;71.47;99693.66;5047914;28;20043;-77
2023/09/25 02:33:44;;;;;;;2.30;2.10;;;;;;;11.83;71.47;99690.31;5050370;28;20057;-78
2023/09/25 02:36:09;;;;;;;3.58;2.42;;;;;;;11.79;71.50;99691.84;5050150;28;20041;-78
2023/09/25 02:38:35;;;;;;;2.20;2.00;;;;;;;11.71;72.19;99702.88;5049868;28;20047;-79
2023/09/25 02:41:01;;;;;;;2.90;2.70;;;;;;;11.71;71.75;99697.53;5047641;28;20036;-76
2023/09/25 02:43:27;;;;;;;2.50;2.35;;;;;;;11.69;71.90;99690.78;5048148;28;20040;-77
2023/09/25 02:45:53;;;;;;;2.60;2.40;;;;;;;11.67;72.19;99691.03;5041436;28;20029;-77
2023/09/25 02:48:18;;;;;;;2.65;2.40;;;;;;;11.67;71.76;99707.06;5044668;28;20048;-76
2023/09/25 02:50:43;;;;;;;3.50;2.75;;;;;;;11.52;72.38;99701.34;5048524;28;20057;-76
2023/09/25 02:53:09;;;;;;;2.58;2.40;;;;;;;11.45;72.54;99695.31;5048417;28;20051;-76
2023/09/25 02:55:34;;;;;;;3.03;2.35;;;;;;;11.41;72.74;99693.34;5045933;28;20037;-77
2023/09/25 02:58:00;;;;;;;5.32;3.78;;;;;;;11.14;73.09;99692.97;5052670;28;20158;-76
2023/09/25 03:00:26;;;;;;;2.63;2.42;;;;;;;10.85;74.40;99696.53;5047865;28;20502;-77
2023/09/25 03:02:52;;;;;;;2.60;2.40;;;;;;;11.63;72.88;99691.69;5040706;28;20040;-77
2023/09/25 03:05:19;;;;;;;3.78;2.63;;;;;;;11.77;72.32;99696.59;5040478;28;20033;-76
2023/09/25 03:07:45;;;;;;;2.65;2.45;;;;;;;11.73;71.82;99694.63;5044966;28;20067;-77
2023/09/25 03:10:10;;;;;;;3.47;2.33;;;;;;;11.73;71.91;99684.72;5047972;28;20032;-77
2023/09/25 03:12:36;;;;;;;3.20;2.55;;;;;;;11.85;71.80;99695.41;5046302;28;20037;-77
2023/09/25 03:15:04;;;;;;;4.30;2.45;;;;;;;11.98;71.10;99698.66;5049855;28;20083;-76
2023/09/25 03:17:30;;;;;;;3.72;2.38;;;;;;;11.96;71.37;99694.59;5046536;28;20056;-77
2023/09/25 03:19:55;;;;;;;4.07;2.72;;;;;;;11.85;71.51;99688.22;5047360;28;20063;-76
2023/09/25 03:22:21;;;;;;;3.70;3.20;;;;;;;11.69;71.57;99694.28;5044077;28;20134;-77
2023/09/25 03:24:48;;;;;;;3.20;3.00;;;;;;;11.62;72.40;99700.78;5048172;28;20036;-77
2023/09/25 03:27:13;;;;;;;3.85;3.33;;;;;;;11.60;72.42;99689.50;5047001;28;20021;-76
2023/09/25 03:29:39;;;;;;;4.97;3.33;;;;;;;11.33;72.56;99697.19;5044677;28;20047;-77
2023/09/25 03:32:04;;;;;;;4.43;2.95;;;;;;;10.99;74.29;99692.59;5048517;28;20040;-76
2023/09/25 03:34:29;;;;;;;3.70;2.60;;;;;;;11.55;73.34;99694.72;5047682;28;20167;-77
2023/09/25 03:36:55;;;;;;;4.30;2.60;;;;;;;11.80;71.94;99693.44;5045048;28;20064;-77
2023/09/25 03:39:20;;;;;;;3.28;2.63;;;;;;;11.97;71.58;99691.66;5025457;28;20037;-76
2023/09/25 03:41:46;;;;;;;3.70;3.03;;;;;;;11.87;71.50;99699.50;5046046;28;20044;-76
2023/09/25 03:44:11;;;;;;;2.17;2.08;;;;;;;11.81;71.89;99694.25;5046693;28;20061;-77
2023/09/25 03:46:36;;;;;;;2.92;2.60;;;;;;;11.83;71.82;99698.34;5047081;28;20082;-77
2023/09/25 03:49:05;;;;;;;9.20;3.42;;;;;;;11.89;71.96;99688.53;5055720;28;20048;-77
2023/09/25 03:51:32;;;;;;;2.83;2.63;;;;;;;11.75;72.24;99685.31;5046298;28;20033;-77
2023/09/25 03:53:58;;;;;;;2.70;2.47;;;;;;;11.76;72.09;99678.91;5049523;28;20017;-78
2023/09/25 03:56:23;;;;;;;4.95;3.33;;;;;;;11.83;71.87;99678.78;5044759;28;20094;-77
2023/09/25 03:58:49;;;;;;;3.00;2.78;;;;;;;11.76;72.14;99678.91;5047838;28;20086;-76
2023/09/25 04:01:14;;;;;;;2.88;2.67;;;;;;;11.41;73.50;99688.81;5043084;28;20039;-77
2023/09/25 04:03:39;;;;;;;3.97;2.35;;;;;;;11.19;72.95;99693.09;5045552;28;20052;-78
2023/09/25 04:06:05;;;;;;;4.05;2.42;;;;;;;11.33;73.33;99689.16;5048870;28;20052;-77
2023/09/25 04:08:31;;;;;;;3.53;2.55;;;;;;;11.49;72.77;99687.66;5048221;28;20104;-82
2023/09/25 04:10:56;;;;;;;3.20;2.78;;;;;;;11.60;72.34;99686.84;5043500;28;20044;-77
2023/09/25 04:13:22;;;;;;;3.03;2.83;;;;;;;11.90;71.17;99685.63;5051245;28;20036;-79
2023/09/25 04:15:50;;;;;;;3.28;2.90;;;;;;;11.86;71.40;99684.47;5051366;28;20539;-83
2023/09/25 04:18:18;;;;;;;3.63;3.10;;;;;;;11.82;71.73;99695.88;5050870;28;20054;-82
2023/09/25 04:20:43;;;;;;;3.50;2.67;;;;;;;11.75;71.26;99682.63;5051410;28;20020;-81
2023/09/25 04:23:09;;;;;;;3.50;3.00;;;;;;;11.75;72.00;99693.31;5057646;28;20067;-81
2023/09/25 04:25:35;;;;;;;2.95;2.75;;;;;;;11.77;71.79;99695.78;5047282;28;20040;-81
2023/09/25 04:28:01;;;;;;;4.07;3.15;;;;;;;11.66;72.65;99693.91;5046523;28;20025;-79
2023/09/25 04:30:27;;;;;;;3.10;2.60;;;;;;;11.49;72.61;99701.81;5052791;28;20119;-81
2023/09/25 04:32:56;;;;;;;4.00;3.25;;;;;;;11.51;72.28;99694.38;5051764;28;20025;-81
2023/09/25 04:35:23;;;;;;;3.42;3.13;;;;;;;11.33;72.92;99697.19;5048002;28;20025;-81
2023/09/25 04:37:48;;;;;;;3.25;2.95;;;;;;;11.58;72.58;99700.41;5049331;28;20469;-81
2023/09/25 04:40:30;;;;;;;3.53;3.13;;;;;;;11.50;72.03;99694.63;5052069;28;20100;-80
2023/09/25 04:42:56;;;;;;;3.30;2.97;;;;;;;11.83;71.34;99700.19;5051392;28;20036;-80
2023/09/25 04:45:23;;;;;;;6.32;3.15;;;;;;;11.64;71.78;99691.44;5052124;28;20031;-80
2023/09/25 04:47:52;;;;;;;3.10;2.90;;;;;;;11.59;71.76;99693.22;5065616;28;20051;-79
2023/09/25 04:50:19;;;;;;;4.22;2.72;;;;;;;11.55;71.68;99694.72;5050723;28;20021;-81
2023/09/25 04:52:45;;;;;;;2.92;2.72;;;;;;;11.47;72.12;99690.53;5049431;28;20028;-81
2023/09/25 04:55:11;;;;;;;3.63;3.08;;;;;;;11.40;72.63;99700.53;5029814;28;20037;-80
2023/09/25 04:57:46;;;;;;;2.75;2.55;;;;;;;11.42;72.44;99709.16;5050648;28;20389;-80
2023/09/25 05:02:45;;;;;;;3.35;2.78;;;;;;;11.38;72.16;99697.28;5049575;28;20032;-79
2023/09/25 05:05:11;;;;;;;2.78;2.50;;;;;;;11.36;72.34;99704.72;5042930;28;20021;-79
2023/09/25 05:07:36;;;;;;;2.92;2.72;;;;;;;11.38;71.82;99699.94;5049050;28;20056;-79
2023/09/25 05:10:02;;;;;;;3.35;2.80;;;;;;;11.31;71.93;99694.72;5046908;28;20067;-79
2023/09/25 05:12:28;;;;;;;3.65;3.38;;;;;;;11.28;72.54;99702.41;5046892;28;20090;-78
2023/09/25 05:14:53;;;;;;;4.22;3.15;;;;;;;11.27;72.41;99703.44;5044960;28;20532;-79
2023/09/25 05:17:19;;;;;;;3.75;3.30;;;;;;;11.28;72.58;99699.72;5039695;28;20033;-78
2023/09/25 05:19:44;;;;;;;6.82;3.00;;;;;;;11.22;72.33;99698.00;5049394;28;20546;-79
2023/09/25 05:22:10;;;;;;;5.18;3.03;;;;;;;11.14;72.16;99688.44;5034876;28;20021;-79
2023/09/25 05:24:35;;;;;;;4.30;3.00;;;;;;;11.26;72.36;99696.47;5050925;28;20046;-79
2023/09/25 05:27:01;;;;;;;3.15;2.88;;;;;;;11.31;72.52;99705.41;5052889;28;20049;-78
2023/09/25 05:29:26;;;;;;;3.42;3.00;;;;;;;11.25;72.67;99700.19;5052461;28;20116;-79
2023/09/25 05:31:51;;;;;;;3.53;3.13;;;;;;;11.22;72.96;99708.69;5054347;28;20025;-80
2023/09/25 05:34:18;;;;;;;3.50;3.20;;;;;;;11.44;72.55;99715.09;5056785;28;20046;-80
2023/09/25 05:36:45;;;;;;;4.53;3.55;;;;;;;11.24;72.40;99701.25;5053432;28;20032;-82
2023/09/25 05:39:10;;;;;;;3.72;3.33;;;;;;;11.33;72.81;99702.53;5055884;28;20059;-83
2023/09/25 05:41:36;;;;;;;3.50;3.20;;;;;;;11.31;72.45;99707.28;5058679;28;20122;-81
2023/09/25 05:44:01;;;;;;;3.78;3.03;;;;;;;11.29;72.54;99710.19;5056991;28;20057;-79
2023/09/25 05:46:27;;;;;;;3.65;3.08;;;;;;;11.29;72.94;99710.19;5065729;28;20355;-80
2023/09/25 05:48:53;;;;;;;3.33;3.03;;;;;;;11.36;72.63;99707.41;5053929;28;20060;-78
2023/09/25 05:51:19;;;;;;;3.63;3.33;;;;;;;11.40;72.59;99711.22;5051182;28;20021;-79
2023/09/25 05:53:44;;;;;;;3.58;3.08;;;;;;;11.44;72.42;99709.75;5053900;28;20044;-80
2023/09/25 05:56:09;;;;;;;4.22;3.60;;;;;;;11.54;72.54;99711.81;5067221;28;20029;-77
2023/09/25 05:58:35;;;;;;;3.45;3.15;;;;;;;11.52;72.68;99712.06;5068022;28;20120;-81
2023/09/25 06:01:01;;;;;;;4.53;4.13;;;;;;;11.50;72.83;99721.34;5052606;28;20021;-82
2023/09/25 06:03:27;;;;;;;4.57;3.22;;;;;;;11.48;72.62;99718.09;5058306;28;20032;-83
2023/09/25 06:05:52;;;;;;;7.70;4.28;;;;;;;11.48;74.01;99726.94;5052048;28;20036;-82
2023/09/25 06:08:18;;;;;;;4.40;4.00;;;;;;;11.59;73.28;99725.31;5066635;28;20029;-82
2023/09/25 06:10:44;;;;;;;4.38;3.97;;;;;;;11.63;73.40;99726.47;5053505;28;20440;-81
2023/09/25 06:13:09;;;;;;;5.07;3.75;;;;;;;11.68;73.52;99727.44;5053030;28;20117;-82
2023/09/25 06:15:37;;;;;;;5.63;4.38;;;;;;;11.67;73.69;99738.34;5046872;28;20064;-83
2023/09/25 06:18:07;;;;;;;4.72;3.75;;;;;;;11.64;74.22;99739.59;5073649;28;20060;-84
2023/09/25 06:20:36;;;;;;;6.43;4.20;;;;;;;11.58;73.91;99732.50;5053874;28;20115;-80
2023/09/25 06:23:02;;;;;;;5.38;4.13;;;;;;;11.68;74.21;99734.63;5070544;28;20029;-80
2023/09/25 06:25:29;;;;;;;4.35;3.75;;;;;;;11.65;74.52;99740.41;5055380;28;20108;-80
2023/09/25 06:27:55;;;;;;;6.50;3.88;;;;;;;11.69;74.33;99744.25;5054533;28;20120;-80
2023/09/25 06:30:21;;;;;;;3.70;3.40;;;;;;;11.61;74.37;99741.91;5037967;28;20029;-80
2023/09/25 06:32:48;;;;;;;4.50;3.60;;;;;;;11.63;74.57;99732.63;5054485;28;20059;-81
2023/09/25 06:35:14;;;;;;;9.18;4.60;;;;;;;11.72;74.99;99744.63;5050111;28;21521;-80
2023/09/25 06:37:39;;;;;;;4.90;4.22;;;;;;;11.74;74.95;99737.19;5055888;28;20032;-80
2023/09/25 06:40:12;;;;;;;4.72;4.22;;;;;;;11.58;75.51;99745.88;5057540;28;20101;-80
2023/09/25 06:42:39;;;;;;;4.95;4.55;;;;;;;11.71;75.11;99752.88;5066687;28;20118;-81
2023/09/25 06:45:05;;;;;;;4.93;4.43;;;;;;;11.67;75.08;99749.03;5059891;28;20496;-83
2023/09/25 06:47:32;;;;;;;6.53;4.38;;;;;;;11.47;76.47;99751.19;5056503;28;20024;-82
2023/09/25 06:49:57;;;;;;;5.40;4.75;;;;;;;11.09;78.82;99747.13;5063661;28;20080;-81
2023/09/25 06:52:22;;;;;;;5.28;4.32;;;;;;;11.46;76.90;99747.75;5061547;28;20072;-80
2023/09/25 06:54:48;;;;;;;6.10;4.57;;;;;;;11.66;76.15;99748.22;5037300;28;20063;-80
2023/09/25 06:57:13;;;;;;;7.93;4.78;;;;;;;11.72;76.13;99751.84;5051318;28;20615;-82
2023/09/25 06:59:39;;;;;;;7.75;5.22;;;;;;;10.83;81.79;99730.69;5058537;28;20389;-80
2023/09/25 07:02:05;;;;;;;9.55;4.55;;;;;;;11.25;78.90;99738.41;5035483;28;20026;-80
2023/09/25 07:04:31;;;;;;;6.97;5.15;;;;;;;11.52;77.03;99730.75;5066381;28;20033;-80
2023/09/25 07:06:56;;;;;;;7.47;4.65;;;;;;;11.62;76.71;99740.88;5057647;28;20127;-83
2023/09/25 07:09:22;;;;;;;7.50;5.18;;;;;;;11.27;80.21;99739.00;5075539;28;20037;-81
2023/09/25 07:11:48;;;;;;;6.45;4.18;;;;;;;11.78;76.92;99738.34;5074737;28;20037;-80
2023/09/25 07:14:14;;;;;;;6.13;4.45;;;;;;;11.62;77.82;99736.34;5059341;28;20409;-81
2023/09/25 07:16:40;;;;;;;5.78;4.20;;;;;;;11.75;77.51;99744.16;5055788;28;20116;-81
2023/09/25 07:19:08;;;;;;;5.15;4.65;;;;;;;11.78;76.67;99733.00;5062627;28;20052;-83
2023/09/25 07:21:35;;;;;;;4.70;4.10;;;;;;;11.88;76.37;99738.56;5055150;28;20021;-82
2023/09/25 07:24:01;;;;;;;5.15;4.65;;;;;;;11.60;79.11;99743.78;5040565;28;20025;-82
2023/09/25 07:26:27;;;;;;;5.88;5.25;;;;;;;11.36;81.40;99749.38;5053343;28;20040;-84
2023/09/25 07:28:53;;;;;;;5.70;4.90;;;;;;;11.39;80.70;99744.38;5037879;28;20035;-82
2023/09/25 07:31:19;;;;;;;5.13;4.00;;;;;;;11.66;78.72;99747.41;5058917;28;20032;-83
2023/09/25 07:33:45;;;;;;;4.95;4.10;;;;;;;11.77;79.09;99746.59;5065422;28;20040;-84
2023/09/25 07:36:11;;;;;;;4.18;3.78;;;;;;;11.98;77.36;99743.31;5055259;28;20367;-85
2023/09/25 07:38:36;;;;;;;5.18;4.45;;;;;;;11.97;77.54;99744.34;5058622;28;20025;-83
2023/09/25 07:41:02;;;;;;;6.40;3.92;;;;;;;11.89;78.11;99755.41;5055407;28;20025;-82
2023/09/25 07:43:29;;;;;;;5.50;4.00;;;;;;;11.95;77.90;99744.59;5055662;28;20546;-82
2023/09/25 07:45:55;;;;;;;8.40;4.30;;;;;;;11.75;79.68;99754.84;5062067;28;20071;-82
2023/09/25 07:48:20;;;;;;;5.97;3.72;;;;;;;12.06;77.92;99750.97;5054230;28;20028;-83
2023/09/25 07:50:47;;;;;;;4.95;4.32;;;;;;;11.88;79.06;99751.91;5054292;28;20035;-82
2023/09/25 07:53:12;;;;;;;5.30;4.53;;;;;;;12.14;77.79;99755.16;5069784;28;20091;-82
2023/09/25 07:55:38;;;;;;;4.95;4.00;;;;;;;11.96;78.96;99764.97;5054959;28;20482;-82
2023/09/25 07:58:04;;;;;;;7.95;4.53;;;;;;;12.25;77.81;99757.00;5060500;28;20033;-82
2023/09/25 08:00:37;;;;;;;4.93;4.43;;;;;;;12.05;78.56;99752.03;5058021;28;20047;-83
2023/09/25 08:03:05;;;;;;;8.32;4.70;;;;;;;12.18;78.95;99757.13;5056503;28;20074;-83
2023/09/25 08:05:30;;;;;;;3.72;3.40;;;;;;;12.29;77.40;99748.25;5052373;28;20032;-85
2023/09/25 08:07:56;;;;;;;3.67;3.35;;;;;;;12.28;77.92;99748.47;5065209;28;20529;-83
2023/09/25 08:10:21;;;;;;;4.32;3.72;;;;;;;12.17;79.71;99760.00;5054989;28;20119;-83
2023/09/25 08:12:47;;;;;;;3.58;3.28;;;;;;;12.15;79.82;99751.41;5060572;28;20162;-84
2023/09/25 08:15:27;;;;;;;5.50;3.30;;;;;;;12.42;78.37;99744.47;5083493;28;20401;-81
2023/09/25 08:17:52;;;;;;;4.40;3.25;;;;;;;12.34;78.43;99739.50;5066031;28;20035;-81
2023/09/25 08:20:20;;;;;;;4.78;3.75;;;;;;;12.52;77.69;99748.16;5066573;28;20040;-81
2023/09/25 08:22:47;;;;;;;5.93;3.13;;;;;;;12.36;78.81;99750.78;5060921;28;20115;-81
2023/09/25 08:25:12;;;;;;;3.58;3.20;;;;;;;12.38;79.18;99740.66;5063484;28;20380;-81
2023/09/25 08:27:41;;;;;;;3.95;3.17;;;;;;;12.76;76.50;99738.16;5068557;28;20104;-81
2023/09/25 08:30:08;;;;;;;4.90;3.30;;;;;;;12.78;76.98;99747.59;5076683;28;20427;-80
2023/09/25 08:32:34;;;;;;;4.82;3.20;;;;;;;12.84;76.52;99751.19;5065678;28;20435;-81
2023/09/25 08:35:00;;;;;;;4.07;3.05;;;;;;;12.97;75.86;99752.75;5066080;28;20025;-81
2023/09/25 08:37:25;;;;;;;4.78;3.30;;;;;;;12.79;77.21;99751.91;5059112;28;20086;-81
2023/09/25 08:39:55;;;;;;;5.10;3.35;;;;;;;13.09;76.15;99759.69;5048511;28;20037;-81
2023/09/25 08:42:22;;;;;;;3.38;2.72;;;;;;;12.91;77.62;99764.44;5067030;28;20024;-81
2023/09/25 08:44:52;;;;;;;3.08;2.78;;;;;;;12.99;77.15;99764.03;5066054;28;20142;-81
2023/09/25 08:47:19;;;;;;;4.40;3.40;;;;;;;13.00;77.37;99758.41;5067787;28;20071;-80
2023/09/25 08:49:49;;;;;;;3.35;3.05;;;;;;;13.07;77.12;99745.72;5057141;28;20525;-80
2023/09/25 08:52:15;;;;;;;2.97;2.67;;;;;;;12.94;76.71;99747.84;5064838;28;20037;-81
2023/09/25 08:54:40;;;;;;;3.83;2.88;;;;;;;13.15;76.93;99749.88;5064679;28;20161;-81
2023/09/25 08:57:06;;;;;;;4.25;3.13;;;;;;;13.34;76.69;99746.72;5066995;28;20374;-81
2023/09/25 08:59:33;;;;;;;4.50;2.72;;;;;;;13.24;76.55;99733.13;5065392;28;20488;-81
2023/09/25 09:01:59;;;;;;;3.95;2.70;;;;;;;13.27;77.09;99743.38;5048960;28;20119;-81
2023/09/25 09:04:24;;;;;;;7.72;2.75;;;;;;;13.18;77.81;99735.97;5066524;28;20155;-80
2023/09/25 09:06:50;;;;;;;3.08;2.75;;;;;;;13.41;76.49;99741.97;5046833;28;20079;-81
2023/09/25 09:09:15;;;;;;;4.50;2.80;;;;;;;13.42;75.91;99742.78;5057598;28;20060;-81
2023/09/25 09:11:51;;;;;;;5.13;3.65;;;;;;;13.50;75.93;99720.91;5061372;28;20024;-81
2023/09/25 09:14:41;;;;;;;4.65;3.00;;;;;;;13.35;74.88;99731.41;5066541;28;20400;-81
2023/09/25 09:17:09;;;;;;;3.80;2.38;;;;;;;13.48;74.53;99721.16;5062914;28;20048;-81
2023/09/25 09:19:55;;;;;;;2.58;2.38;;;;;;;13.76;74.93;99733.63;5064578;28;20029;-81
2023/09/25 09:22:21;;;;;;;5.95;2.70;;;;;;;13.70;74.73;99723.06;5063911;28;20480;-81
2023/09/25 09:24:51;;;;;;;4.72;2.45;;;;;;;13.69;73.58;99722.28;5063852;28;20017;-81
2023/09/25 09:27:20;;;;;;;2.83;2.58;;;;;;;13.97;74.11;99711.41;5049026;28;20048;-81
2023/09/25 09:29:47;;;;;;;2.83;2.30;;;;;;;13.95;74.42;99720.75;5047716;28;20396;-81
2023/09/25 09:32:14;;;;;;;4.18;2.40;;;;;;;14.22;73.47;99722.44;5053367;28;20055;-81
2023/09/25 09:34:40;;;;;;;2.75;2.15;;;;;;;14.14;74.16;99716.69;5019769;28;20029;-81
2023/09/25 09:37:08;;;;;;;5.60;2.70;;;;;;;14.25;73.61;99708.53;5050274;28;20047;-81
2023/09/25 09:39:35;;;;;;;2.35;2.17;;;;;;;14.33;73.10;99706.50;5051793;28;20033;-81
2023/09/25 09:42:08;;;;;;;2.55;2.35;;;;;;;14.44;72.36;99706.31;5032529;28;20029;-81
2023/09/25 09:44:35;;;;;;;3.17;2.63;;;;;;;14.47;71.45;99703.16;5045342;28;20029;-81
2023/09/25 09:47:06;;;;;;;5.03;2.50;;;;;;;14.45;71.67;99691.84;5049232;28;20399;-81
2023/09/25 09:49:35;;;;;;;3.38;2.08;;;;;;;14.81;71.21;99699.19;5050590;28;20025;-82
2023/09/25 09:52:04;;;;;;;4.30;2.85;;;;;;;14.67;70.64;99676.50;5050066;28;20025;-81
2023/09/25 09:54:37;;;;;;;2.65;2.25;;;;;;;14.80;71.18;99688.69;5069041;28;20171;-81
2023/09/25 09:57:02;;;;;;;3.53;2.53;;;;;;;14.85;70.37;99688.75;5050485;28;20035;-81
2023/09/25 09:59:28;;;;;;;2.50;2.30;;;;;;;14.81;69.88;99688.44;5048481;28;20037;-81
2023/09/25 10:01:57;;;;;;;1.95;1.83;;;;;;;15.12;69.35;99689.50;5032525;28;20037;-81
2023/09/25 10:04:22;;;;;;;4.45;2.17;;;;;;;15.20;69.32;99689.00;5028578;28;20044;-82
2023/09/25 10:06:51;;;;;;;3.08;2.17;;;;;;;15.17;68.97;99677.97;5049322;28;20021;-82
2023/09/25 10:09:18;;;;;;;3.42;2.03;;;;;;;15.32;69.10;99681.59;5038348;28;20030;-81
2023/09/25 10:11:46;;;;;;;2.38;2.20;;;;;;;15.36;69.04;99666.53;5052736;28;20405;-81
2023/09/25 10:14:12;;;;;;;3.58;2.20;;;;;;;15.67;68.22;99664.88;5062459;28;20078;-81
2023/09/25 10:17:06;;;;;;;3.30;2.20;;;;;;;15.61;68.10;99668.63;5049844;28;20037;-81
2023/09/25 10:19:41;;;;;;;4.10;2.22;;;;;;;15.76;67.33;99687.53;5048517;28;20041;-81
2023/09/25 10:22:15;;;;;;;2.33;2.13;;;;;;;15.93;66.60;99687.34;5049163;28;20028;-81
2023/09/25 10:24:42;;;;;;;2.72;2.47;;;;;;;15.89;67.10;99694.31;5049083;28;20751;-81
2023/09/25 10:27:09;;;;;;;3.65;2.47;;;;;;;15.91;66.38;99679.53;5054673;28;20124;-81
2023/09/25 10:29:36;;;;;;;2.38;2.17;;;;;;;15.77;65.58;99687.25;5049790;28;20025;-82
2023/09/25 10:32:03;;;;;;;4.57;2.53;;;;;;;15.97;66.37;99686.56;5049829;28;20033;-82
2023/09/25 10:34:29;;;;;;;2.53;2.05;;;;;;;16.14;66.21;99687.16;5056920;28;20029;-82
2023/09/25 10:36:59;;;;;;;2.90;2.20;;;;;;;16.04;66.08;99679.03;5056883;28;20469;-81
2023/09/25 10:39:29;;;;;;;2.67;2.38;;;;;;;15.95;65.90;99677.94;5043652;28;20032;-81
2023/09/25 10:42:07;;;;;;;2.55;2.20;;;;;;;15.98;64.67;99665.81;5052221;28;20162;-81
2023/09/25 10:44:35;;;;;;;3.28;2.30;;;;;;;16.23;65.94;99682.06;5052771;28;20025;-81
2023/09/25 10:47:05;;;;;;;2.80;2.33;;;;;;;16.09;64.38;99673.69;5052628;28;20118;-81
2023/09/25 10:49:34;;;;;;;1.92;1.83;;;;;;;16.13;65.22;99677.47;5051440;28;20016;-81
2023/09/25 10:51:59;;;;;;;3.15;2.33;;;;;;;16.10;65.26;99667.22;5033713;28;20370;-81
2023/09/25 10:54:24;;;;;;;2.40;1.90;;;;;;;16.36;65.05;99671.59;5006707;28;20032;-81
2023/09/25 10:56:50;;;;;;;7.00;2.45;;;;;;;16.35;64.77;99661.91;5034430;28;20040;-81
2023/09/25 10:59:16;;;;;;;4.13;2.13;;;;;;;16.51;64.57;99673.56;5051025;28;20036;-81
2023/09/25 11:01:41;;;;;;;4.75;2.20;;;;;;;16.69;64.24;99661.44;5033562;28;20048;-81
2023/09/25 11:04:09;;;;;;;2.35;2.10;;;;;;;16.82;64.20;99661.72;5034528;28;20044;-81
2023/09/25 11:06:34;;;;;;;2.78;2.30;;;;;;;16.88;63.38;99665.25;5050798;28;20033;-81
2023/09/25 11:09:07;;;;;;;2.65;2.13;;;;;;;17.09;63.03;99667.69;5048112;28;20052;-83
2023/09/25 11:11:33;;;;;;;4.05;2.35;;;;;;;17.08;62.91;99646.38;5048744;28;20039;-81
2023/09/25 11:13:59;;;;;;;3.30;2.22;;;;;;;17.26;62.87;99643.09;5017620;28;20024;-81
2023/09/25 11:16:25;;;;;;;2.60;2.40;;;;;;;16.91;62.88;99662.00;5051033;28;20029;-82
2023/09/25 11:19:04;;;;;;;3.88;2.35;;;;;;;17.05;63.31;99661.22;5050782;28;20036;-81
2023/09/25 11:21:33;;;;;;;3.70;2.42;;;;;;;17.04;62.72;99647.97;5049268;28;20041;-81
2023/09/25 11:23:58;;;;;;;3.70;2.50;;;;;;;17.08;60.96;99651.78;5050242;28;20284;-81
2023/09/25 11:26:27;;;;;;;5.47;2.78;;;;;;;17.18;62.77;99633.69;5047302;28;20029;-81
2023/09/25 11:28:57;;;;;;;3.95;2.78;;;;;;;17.29;61.37;99636.34;5015493;28;20029;-81
2023/09/25 11:31:25;;;;;;;4.35;2.38;;;;;;;17.32;62.04;99627.72;5046557;28;20041;-81
2023/09/25 11:33:50;;;;;;;2.50;2.00;;;;;;;17.76;61.70;99642.19;5033184;28;20033;-81